sensor_id;sensor_type;location;lat;lon;timestamp;P1;durP1;ratioP1;P2;durP2;ratioP2
67768;SDS011;54569;52.018;5.584;2022-08-19T00:01:47;12.57;;;11.32;;
67768;SDS011;54569;52.018;5.584;2022-08-19T00:04:15;13.55;;;11.85;;
67768;SDS011;54569;52.018;5.584;2022-08-19T00:06:42;12.48;;;11.38;;
67768;SDS011;54569;52.018;5.584;2022-08-19T00:09:11;13.95;;;11.55;;
67768;SDS011;54569;52.018;5.584;2022-08-19T00:11:38;12.05;;;11.05;;
67768;SDS011;54569;52.018;5.584;2022-08-19T00:14:05;12.85;;;11.65;;
67768;SDS011;54569;52.018;5.584;2022-08-19T00:16:32;9.63;;;8.73;;
67768;SDS011;54569;52.018;5.584;2022-08-19T00:18:58;10.52;;;9.60;;
67768;SDS011;54569;52.018;5.584;2022-08-19T00:21:24;9.38;;;8.57;;
67768;SDS011;54569;52.018;5.584;2022-08-19T00:23:55;11.27;;;10.27;;
67768;SDS011;54569;52.018;5.584;2022-08-19T00:26:24;9.50;;;8.70;;
67768;SDS011;54569;52.018;5.584;2022-08-19T00:28:51;9.65;;;8.75;;
67768;SDS011;54569;52.018;5.584;2022-08-19T00:31:17;9.05;;;8.18;;
67768;SDS011;54569;52.018;5.584;2022-08-19T00:33:43;9.45;;;8.32;;
67768;SDS011;54569;52.018;5.584;2022-08-19T00:36:11;10.32;;;9.32;;
67768;SDS011;54569;52.018;5.584;2022-08-19T00:38:38;9.55;;;8.77;;
67768;SDS011;54569;52.018;5.584;2022-08-19T00:41:08;10.25;;;9.35;;
67768;SDS011;54569;52.018;5.584;2022-08-19T00:43:35;10.55;;;9.73;;
67768;SDS011;54569;52.018;5.584;2022-08-19T00:46:01;10.00;;;9.10;;
67768;SDS011;54569;52.018;5.584;2022-08-19T00:48:29;10.50;;;9.50;;
67768;SDS011;54569;52.018;5.584;2022-08-19T00:50:56;8.98;;;8.10;;
67768;SDS011;54569;52.018;5.584;2022-08-19T00:53:24;9.63;;;8.75;;
67768;SDS011;54569;52.018;5.584;2022-08-19T00:55:53;9.65;;;8.75;;
67768;SDS011;54569;52.018;5.584;2022-08-19T00:58:21;10.02;;;8.13;;
67768;SDS011;54569;52.018;5.584;2022-08-19T01:00:50;9.25;;;8.45;;
67768;SDS011;54569;52.018;5.584;2022-08-19T01:03:18;10.40;;;9.05;;
67768;SDS011;54569;52.018;5.584;2022-08-19T01:05:45;10.63;;;9.60;;
67768;SDS011;54569;52.018;5.584;2022-08-19T01:08:13;9.45;;;8.55;;
67768;SDS011;54569;52.018;5.584;2022-08-19T01:10:45;10.10;;;9.20;;
67768;SDS011;54569;52.018;5.584;2022-08-19T01:13:23;9.70;;;8.95;;
67768;SDS011;54569;52.018;5.584;2022-08-19T01:16:00;11.98;;;10.77;;
67768;SDS011;54569;52.018;5.584;2022-08-19T01:18:35;11.82;;;10.63;;
67768;SDS011;54569;52.018;5.584;2022-08-19T01:22:06;10.15;;;9.27;;
67768;SDS011;54569;52.018;5.584;2022-08-19T01:23:59;7.90;;;7.20;;
67768;SDS011;54569;52.018;5.584;2022-08-19T01:26:25;7.22;;;6.72;;
67768;SDS011;54569;52.018;5.584;2022-08-19T01:28:53;7.72;;;6.97;;
67768;SDS011;54569;52.018;5.584;2022-08-19T01:31:23;10.27;;;7.40;;
67768;SDS011;54569;52.018;5.584;2022-08-19T01:33:51;9.60;;;8.60;;
67768;SDS011;54569;52.018;5.584;2022-08-19T01:36:25;8.88;;;7.97;;
67768;SDS011;54569;52.018;5.584;2022-08-19T01:38:54;10.88;;;8.55;;
67768;SDS011;54569;52.018;5.584;2022-08-19T01:41:21;10.13;;;9.23;;
67768;SDS011;54569;52.018;5.584;2022-08-19T01:43:47;10.30;;;8.77;;
67768;SDS011;54569;52.018;5.584;2022-08-19T01:46:13;9.43;;;8.45;;
67768;SDS011;54569;52.018;5.584;2022-08-19T01:48:40;10.63;;;9.45;;
67768;SDS011;54569;52.018;5.584;2022-08-19T01:51:07;10.10;;;9.10;;
67768;SDS011;54569;52.018;5.584;2022-08-19T01:53:34;10.70;;;9.70;;
67768;SDS011;54569;52.018;5.584;2022-08-19T01:55:59;10.73;;;9.65;;
67768;SDS011;54569;52.018;5.584;2022-08-19T01:58:35;10.13;;;9.05;;
67768;SDS011;54569;52.018;5.584;2022-08-19T02:01:05;10.43;;;9.43;;
67768;SDS011;54569;52.018;5.584;2022-08-19T02:03:31;9.45;;;8.55;;
67768;SDS011;54569;52.018;5.584;2022-08-19T02:05:58;9.98;;;8.98;;
67768;SDS011;54569;52.018;5.584;2022-08-19T02:08:26;9.95;;;9.00;;
67768;SDS011;54569;52.018;5.584;2022-08-19T02:10:52;9.02;;;8.13;;
67768;SDS011;54569;52.018;5.584;2022-08-19T02:13:18;9.90;;;9.00;;
67768;SDS011;54569;52.018;5.584;2022-08-19T02:15:44;7.53;;;6.93;;
67768;SDS011;54569;52.018;5.584;2022-08-19T02:18:10;8.65;;;5.78;;
67768;SDS011;54569;52.018;5.584;2022-08-19T02:20:36;7.25;;;5.80;;
67768;SDS011;54569;52.018;5.584;2022-08-19T02:23:03;4.53;;;4.18;;
67768;SDS011;54569;52.018;5.584;2022-08-19T02:25:29;5.57;;;4.65;;
67768;SDS011;54569;52.018;5.584;2022-08-19T02:27:55;6.22;;;4.82;;
67768;SDS011;54569;52.018;5.584;2022-08-19T02:30:21;6.00;;;5.45;;
67768;SDS011;54569;52.018;5.584;2022-08-19T02:32:47;5.20;;;4.70;;
67768;SDS011;54569;52.018;5.584;2022-08-19T02:35:13;5.57;;;5.18;;
67768;SDS011;54569;52.018;5.584;2022-08-19T02:37:40;5.63;;;5.13;;
67768;SDS011;54569;52.018;5.584;2022-08-19T02:40:24;5.80;;;5.07;;
67768;SDS011;54569;52.018;5.584;2022-08-19T02:42:51;5.90;;;5.30;;
67768;SDS011;54569;52.018;5.584;2022-08-19T02:45:16;5.57;;;4.93;;
67768;SDS011;54569;52.018;5.584;2022-08-19T02:47:42;5.88;;;5.35;;
67768;SDS011;54569;52.018;5.584;2022-08-19T02:50:08;6.13;;;5.55;;
67768;SDS011;54569;52.018;5.584;2022-08-19T02:52:34;6.35;;;5.75;;
67768;SDS011;54569;52.018;5.584;2022-08-19T02:55:00;7.40;;;6.53;;
67768;SDS011;54569;52.018;5.584;2022-08-19T02:57:26;7.68;;;6.97;;
67768;SDS011;54569;52.018;5.584;2022-08-19T02:59:52;7.45;;;6.45;;
67768;SDS011;54569;52.018;5.584;2022-08-19T03:02:18;7.13;;;6.43;;
67768;SDS011;54569;52.018;5.584;2022-08-19T03:04:44;8.07;;;7.32;;
67768;SDS011;54569;52.018;5.584;2022-08-19T03:07:12;7.72;;;6.93;;
67768;SDS011;54569;52.018;5.584;2022-08-19T03:09:40;6.45;;;5.85;;
67768;SDS011;54569;52.018;5.584;2022-08-19T03:12:09;7.28;;;6.53;;
67768;SDS011;54569;52.018;5.584;2022-08-19T03:14:35;6.43;;;5.63;;
67768;SDS011;54569;52.018;5.584;2022-08-19T03:17:02;6.35;;;5.75;;
67768;SDS011;54569;52.018;5.584;2022-08-19T03:19:29;8.52;;;6.90;;
67768;SDS011;54569;52.018;5.584;2022-08-19T03:21:56;9.13;;;7.07;;
67768;SDS011;54569;52.018;5.584;2022-08-19T03:24:23;8.73;;;7.82;;
67768;SDS011;54569;52.018;5.584;2022-08-19T03:26:53;8.98;;;8.18;;
67768;SDS011;54569;52.018;5.584;2022-08-19T03:29:24;9.10;;;8.30;;
67768;SDS011;54569;52.018;5.584;2022-08-19T03:31:53;9.52;;;8.73;;
67768;SDS011;54569;52.018;5.584;2022-08-19T03:34:27;8.73;;;7.90;;
67768;SDS011;54569;52.018;5.584;2022-08-19T03:36:55;8.15;;;7.55;;
67768;SDS011;54569;52.018;5.584;2022-08-19T03:39:23;7.25;;;5.80;;
67768;SDS011;54569;52.018;5.584;2022-08-19T03:41:50;6.53;;;5.82;;
67768;SDS011;54569;52.018;5.584;2022-08-19T03:44:18;7.78;;;5.75;;
67768;SDS011;54569;52.018;5.584;2022-08-19T03:46:55;6.82;;;5.47;;
67768;SDS011;54569;52.018;5.584;2022-08-19T03:49:23;6.15;;;5.15;;
67768;SDS011;54569;52.018;5.584;2022-08-19T03:51:52;5.68;;;4.50;;
67768;SDS011;54569;52.018;5.584;2022-08-19T03:54:19;4.97;;;4.45;;
67768;SDS011;54569;52.018;5.584;2022-08-19T03:56:48;4.80;;;4.40;;
67768;SDS011;54569;52.018;5.584;2022-08-19T03:59:20;5.15;;;4.63;;
67768;SDS011;54569;52.018;5.584;2022-08-19T04:01:50;4.88;;;4.47;;
67768;SDS011;54569;52.018;5.584;2022-08-19T04:04:16;42.83;;;7.40;;
67768;SDS011;54569;52.018;5.584;2022-08-19T04:06:42;16.52;;;7.47;;
67768;SDS011;54569;52.018;5.584;2022-08-19T04:09:09;7.70;;;6.90;;
67768;SDS011;54569;52.018;5.584;2022-08-19T04:11:37;8.80;;;7.93;;
67768;SDS011;54569;52.018;5.584;2022-08-19T04:14:06;8.32;;;7.53;;
67768;SDS011;54569;52.018;5.584;2022-08-19T04:16:33;10.90;;;8.80;;
67768;SDS011;54569;52.018;5.584;2022-08-19T04:18:59;9.35;;;8.43;;
67768;SDS011;54569;52.018;5.584;2022-08-19T04:21:26;8.65;;;7.85;;
67768;SDS011;54569;52.018;5.584;2022-08-19T04:23:53;8.82;;;8.13;;
67768;SDS011;54569;52.018;5.584;2022-08-19T04:26:20;9.40;;;8.60;;
67768;SDS011;54569;52.018;5.584;2022-08-19T04:28:51;9.00;;;8.05;;
67768;SDS011;54569;52.018;5.584;2022-08-19T04:31:19;11.68;;;8.88;;
67768;SDS011;54569;52.018;5.584;2022-08-19T04:33:47;16.25;;;7.80;;
67768;SDS011;54569;52.018;5.584;2022-08-19T04:36:20;13.65;;;7.72;;
67768;SDS011;54569;52.018;5.584;2022-08-19T04:38:48;20.98;;;7.72;;
67768;SDS011;54569;52.018;5.584;2022-08-19T04:41:15;9.75;;;7.47;;
67768;SDS011;54569;52.018;5.584;2022-08-19T04:43:59;6.63;;;6.13;;
67768;SDS011;54569;52.018;5.584;2022-08-19T04:46:27;15.35;;;7.72;;
67768;SDS011;54569;52.018;5.584;2022-08-19T04:48:57;15.40;;;6.80;;
67768;SDS011;54569;52.018;5.584;2022-08-19T04:51:24;26.60;;;8.68;;
67768;SDS011;54569;52.018;5.584;2022-08-19T04:53:50;52.88;;;6.88;;
67768;SDS011;54569;52.018;5.584;2022-08-19T04:56:17;7.80;;;7.10;;
67768;SDS011;54569;52.018;5.584;2022-08-19T04:58:46;9.27;;;6.93;;
67768;SDS011;54569;52.018;5.584;2022-08-19T05:01:17;44.95;;;9.25;;
67768;SDS011;54569;52.018;5.584;2022-08-19T05:03:45;77.80;;;8.93;;
67768;SDS011;54569;52.018;5.584;2022-08-19T05:06:11;65.90;;;8.50;;
67768;SDS011;54569;52.018;5.584;2022-08-19T05:08:39;35.85;;;6.60;;
67768;SDS011;54569;52.018;5.584;2022-08-19T05:11:12;36.88;;;6.40;;
67768;SDS011;54569;52.018;5.584;2022-08-19T05:13:41;30.40;;;5.50;;
67768;SDS011;54569;52.018;5.584;2022-08-19T05:16:08;14.18;;;5.40;;
67768;SDS011;54569;52.018;5.584;2022-08-19T05:18:36;6.68;;;5.88;;
67768;SDS011;54569;52.018;5.584;2022-08-19T05:21:20;5.95;;;5.43;;
67768;SDS011;54569;52.018;5.584;2022-08-19T05:24:06;5.50;;;5.10;;
67768;SDS011;54569;52.018;5.584;2022-08-19T05:26:41;6.32;;;5.78;;
67768;SDS011;54569;52.018;5.584;2022-08-19T05:29:11;5.32;;;4.95;;
67768;SDS011;54569;52.018;5.584;2022-08-19T05:31:37;5.00;;;4.70;;
67768;SDS011;54569;52.018;5.584;2022-08-19T05:34:03;5.55;;;5.15;;
67768;SDS011;54569;52.018;5.584;2022-08-19T05:36:33;5.68;;;5.18;;
67768;SDS011;54569;52.018;5.584;2022-08-19T05:39:05;6.60;;;5.97;;
67768;SDS011;54569;52.018;5.584;2022-08-19T05:41:37;6.20;;;5.70;;
67768;SDS011;54569;52.018;5.584;2022-08-19T05:44:07;6.15;;;5.65;;
67768;SDS011;54569;52.018;5.584;2022-08-19T05:46:34;7.20;;;6.22;;
67768;SDS011;54569;52.018;5.584;2022-08-19T05:49:02;7.32;;;6.63;;
67768;SDS011;54569;52.018;5.584;2022-08-19T05:51:29;7.50;;;6.90;;
67768;SDS011;54569;52.018;5.584;2022-08-19T05:53:55;8.77;;;7.40;;
67768;SDS011;54569;52.018;5.584;2022-08-19T05:56:21;10.13;;;8.35;;
67768;SDS011;54569;52.018;5.584;2022-08-19T05:58:46;8.80;;;8.07;;
67768;SDS011;54569;52.018;5.584;2022-08-19T06:01:13;9.40;;;8.50;;
67768;SDS011;54569;52.018;5.584;2022-08-19T06:03:41;10.13;;;9.10;;
67768;SDS011;54569;52.018;5.584;2022-08-19T06:06:08;15.30;;;11.05;;
67768;SDS011;54569;52.018;5.584;2022-08-19T06:08:38;16.75;;;13.35;;
67768;SDS011;54569;52.018;5.584;2022-08-19T06:11:12;18.45;;;15.13;;
67768;SDS011;54569;52.018;5.584;2022-08-19T06:13:43;22.77;;;16.77;;
67768;SDS011;54569;52.018;5.584;2022-08-19T06:16:12;26.10;;;18.90;;
67768;SDS011;54569;52.018;5.584;2022-08-19T06:18:38;25.35;;;19.67;;
67768;SDS011;54569;52.018;5.584;2022-08-19T06:21:04;22.42;;;19.00;;
67768;SDS011;54569;52.018;5.584;2022-08-19T06:23:30;26.88;;;22.02;;
67768;SDS011;54569;52.018;5.584;2022-08-19T06:25:55;36.03;;;25.45;;
67768;SDS011;54569;52.018;5.584;2022-08-19T06:28:21;37.15;;;26.20;;
67768;SDS011;54569;52.018;5.584;2022-08-19T06:30:48;42.22;;;28.80;;
67768;SDS011;54569;52.018;5.584;2022-08-19T06:33:15;48.25;;;31.13;;
67768;SDS011;54569;52.018;5.584;2022-08-19T06:35:40;47.92;;;29.88;;
67768;SDS011;54569;52.018;5.584;2022-08-19T06:38:06;48.53;;;31.73;;
67768;SDS011;54569;52.018;5.584;2022-08-19T06:40:33;44.70;;;31.20;;
67768;SDS011;54569;52.018;5.584;2022-08-19T06:43:00;48.25;;;33.88;;
67768;SDS011;54569;52.018;5.584;2022-08-19T06:45:27;47.40;;;32.20;;
67768;SDS011;54569;52.018;5.584;2022-08-19T06:47:53;50.58;;;33.35;;
67768;SDS011;54569;52.018;5.584;2022-08-19T06:50:20;54.03;;;35.83;;
67768;SDS011;54569;52.018;5.584;2022-08-19T06:52:49;57.40;;;37.35;;
67768;SDS011;54569;52.018;5.584;2022-08-19T06:55:15;58.08;;;38.00;;
67768;SDS011;54569;52.018;5.584;2022-08-19T06:57:41;60.53;;;36.83;;
67768;SDS011;54569;52.018;5.584;2022-08-19T07:00:08;61.28;;;37.95;;
67768;SDS011;54569;52.018;5.584;2022-08-19T07:02:41;66.68;;;41.58;;
67768;SDS011;54569;52.018;5.584;2022-08-19T07:05:08;66.18;;;40.60;;
67768;SDS011;54569;52.018;5.584;2022-08-19T07:07:33;63.72;;;41.22;;
67768;SDS011;54569;52.018;5.584;2022-08-19T07:09:59;59.15;;;38.83;;
67768;SDS011;54569;52.018;5.584;2022-08-19T07:12:26;65.60;;;40.42;;
67768;SDS011;54569;52.018;5.584;2022-08-19T07:14:54;65.35;;;42.05;;
67768;SDS011;54569;52.018;5.584;2022-08-19T07:17:19;59.97;;;40.97;;
67768;SDS011;54569;52.018;5.584;2022-08-19T07:19:45;58.28;;;40.80;;
67768;SDS011;54569;52.018;5.584;2022-08-19T07:22:11;59.58;;;40.50;;
67768;SDS011;54569;52.018;5.584;2022-08-19T07:24:37;62.42;;;40.20;;
67768;SDS011;54569;52.018;5.584;2022-08-19T07:27:04;65.35;;;40.60;;
67768;SDS011;54569;52.018;5.584;2022-08-19T07:29:31;57.88;;;39.67;;
67768;SDS011;54569;52.018;5.584;2022-08-19T07:31:58;58.97;;;37.88;;
67768;SDS011;54569;52.018;5.584;2022-08-19T07:34:26;64.30;;;41.55;;
67768;SDS011;54569;52.018;5.584;2022-08-19T07:36:53;61.65;;;40.70;;
67768;SDS011;54569;52.018;5.584;2022-08-19T07:39:20;64.45;;;43.55;;
67768;SDS011;54569;52.018;5.584;2022-08-19T07:41:48;63.58;;;42.25;;
67768;SDS011;54569;52.018;5.584;2022-08-19T07:44:16;65.18;;;42.10;;
67768;SDS011;54569;52.018;5.584;2022-08-19T07:46:44;59.20;;;41.90;;
67768;SDS011;54569;52.018;5.584;2022-08-19T07:49:14;59.03;;;39.75;;
67768;SDS011;54569;52.018;5.584;2022-08-19T07:51:45;60.78;;;40.45;;
67768;SDS011;54569;52.018;5.584;2022-08-19T07:54:12;59.67;;;40.70;;
67768;SDS011;54569;52.018;5.584;2022-08-19T07:56:38;59.42;;;40.72;;
67768;SDS011;54569;52.018;5.584;2022-08-19T07:59:04;55.53;;;39.33;;
67768;SDS011;54569;52.018;5.584;2022-08-19T08:01:30;58.50;;;38.65;;
67768;SDS011;54569;52.018;5.584;2022-08-19T08:03:57;56.10;;;37.65;;
67768;SDS011;54569;52.018;5.584;2022-08-19T08:06:41;49.17;;;35.97;;
67768;SDS011;54569;52.018;5.584;2022-08-19T08:09:32;54.25;;;37.58;;
67768;SDS011;54569;52.018;5.584;2022-08-19T08:12:04;46.70;;;33.65;;
67768;SDS011;54569;52.018;5.584;2022-08-19T08:14:34;48.72;;;35.35;;
67768;SDS011;54569;52.018;5.584;2022-08-19T08:17:03;45.97;;;32.58;;
67768;SDS011;54569;52.018;5.584;2022-08-19T08:19:30;48.38;;;34.40;;
67768;SDS011;54569;52.018;5.584;2022-08-19T08:21:57;44.08;;;32.85;;
67768;SDS011;54569;52.018;5.584;2022-08-19T08:24:24;45.75;;;32.25;;
67768;SDS011;54569;52.018;5.584;2022-08-19T08:26:52;39.78;;;29.00;;
67768;SDS011;54569;52.018;5.584;2022-08-19T08:29:17;41.20;;;31.23;;
67768;SDS011;54569;52.018;5.584;2022-08-19T08:31:45;40.85;;;29.75;;
67768;SDS011;54569;52.018;5.584;2022-08-19T08:34:11;42.80;;;30.05;;
67768;SDS011;54569;52.018;5.584;2022-08-19T08:36:42;37.92;;;29.38;;
67768;SDS011;54569;52.018;5.584;2022-08-19T08:39:14;39.67;;;27.95;;
67768;SDS011;54569;52.018;5.584;2022-08-19T08:41:47;41.28;;;29.85;;
67768;SDS011;54569;52.018;5.584;2022-08-19T08:44:23;39.88;;;28.98;;
67768;SDS011;54569;52.018;5.584;2022-08-19T08:47:03;36.08;;;27.35;;
67768;SDS011;54569;52.018;5.584;2022-08-19T08:52:22;31.92;;;25.00;;
67768;SDS011;54569;52.018;5.584;2022-08-19T08:54:52;32.42;;;24.55;;
67768;SDS011;54569;52.018;5.584;2022-08-19T08:57:23;32.25;;;24.92;;
67768;SDS011;54569;52.018;5.584;2022-08-19T08:59:58;35.03;;;27.95;;
67768;SDS011;54569;52.018;5.584;2022-08-19T09:02:30;36.03;;;28.98;;
67768;SDS011;54569;52.018;5.584;2022-08-19T09:04:56;32.65;;;26.88;;
67768;SDS011;54569;52.018;5.584;2022-08-19T09:10:02;30.33;;;25.38;;
67768;SDS011;54569;52.018;5.584;2022-08-19T09:12:58;33.75;;;26.67;;
67768;SDS011;54569;52.018;5.584;2022-08-19T09:15:54;34.03;;;26.02;;
67768;SDS011;54569;52.018;5.584;2022-08-19T09:21:25;30.10;;;23.73;;
67768;SDS011;54569;52.018;5.584;2022-08-19T09:23:52;29.67;;;23.60;;
67768;SDS011;54569;52.018;5.584;2022-08-19T09:26:19;27.13;;;22.08;;
67768;SDS011;54569;52.018;5.584;2022-08-19T09:28:47;25.73;;;22.88;;
67768;SDS011;54569;52.018;5.584;2022-08-19T09:31:19;23.42;;;21.02;;
67768;SDS011;54569;52.018;5.584;2022-08-19T09:33:48;26.92;;;22.17;;
67768;SDS011;54569;52.018;5.584;2022-08-19T09:36:15;31.88;;;23.77;;
67768;SDS011;54569;52.018;5.584;2022-08-19T09:38:43;26.00;;;23.13;;
67768;SDS011;54569;52.018;5.584;2022-08-19T09:41:14;22.63;;;20.17;;
67768;SDS011;54569;52.018;5.584;2022-08-19T09:43:42;26.92;;;22.52;;
67768;SDS011;54569;52.018;5.584;2022-08-19T09:46:10;23.45;;;20.88;;
67768;SDS011;54569;52.018;5.584;2022-08-19T09:48:36;25.88;;;20.15;;
67768;SDS011;54569;52.018;5.584;2022-08-19T09:51:04;24.85;;;20.73;;
67768;SDS011;54569;52.018;5.584;2022-08-19T09:53:37;22.67;;;19.88;;
67768;SDS011;54569;52.018;5.584;2022-08-19T09:56:03;23.55;;;20.20;;
67768;SDS011;54569;52.018;5.584;2022-08-19T09:58:31;24.05;;;19.88;;
67768;SDS011;54569;52.018;5.584;2022-08-19T10:00:57;21.90;;;19.60;;
67768;SDS011;54569;52.018;5.584;2022-08-19T10:03:25;22.73;;;18.50;;
67768;SDS011;54569;52.018;5.584;2022-08-19T10:05:52;26.35;;;20.20;;
67768;SDS011;54569;52.018;5.584;2022-08-19T10:08:19;21.42;;;19.15;;
67768;SDS011;54569;52.018;5.584;2022-08-19T10:10:53;18.35;;;16.42;;
67768;SDS011;54569;52.018;5.584;2022-08-19T10:13:22;20.55;;;18.50;;
67768;SDS011;54569;52.018;5.584;2022-08-19T10:15:50;21.08;;;16.85;;
67768;SDS011;54569;52.018;5.584;2022-08-19T10:18:18;18.83;;;16.83;;
67768;SDS011;54569;52.018;5.584;2022-08-19T10:20:48;20.27;;;17.73;;
67768;SDS011;54569;52.018;5.584;2022-08-19T10:23:15;17.23;;;15.23;;
67768;SDS011;54569;52.018;5.584;2022-08-19T10:25:42;18.52;;;16.63;;
67768;SDS011;54569;52.018;5.584;2022-08-19T10:28:08;17.25;;;15.05;;
67768;SDS011;54569;52.018;5.584;2022-08-19T10:30:37;19.23;;;17.27;;
67768;SDS011;54569;52.018;5.584;2022-08-19T10:33:05;20.90;;;17.38;;
67768;SDS011;54569;52.018;5.584;2022-08-19T10:35:31;18.00;;;16.15;;
67768;SDS011;54569;52.018;5.584;2022-08-19T10:37:57;18.80;;;16.80;;
67768;SDS011;54569;52.018;5.584;2022-08-19T10:40:24;19.98;;;17.63;;
67768;SDS011;54569;52.018;5.584;2022-08-19T10:42:52;19.23;;;17.25;;
67768;SDS011;54569;52.018;5.584;2022-08-19T10:45:18;19.92;;;17.83;;
67768;SDS011;54569;52.018;5.584;2022-08-19T10:47:47;18.90;;;16.90;;
67768;SDS011;54569;52.018;5.584;2022-08-19T10:50:13;22.20;;;18.52;;
67768;SDS011;54569;52.018;5.584;2022-08-19T10:52:57;20.52;;;18.45;;
67768;SDS011;54569;52.018;5.584;2022-08-19T10:55:27;20.40;;;17.98;;
67768;SDS011;54569;52.018;5.584;2022-08-19T10:58:12;20.05;;;17.70;;
67768;SDS011;54569;52.018;5.584;2022-08-19T11:00:40;20.83;;;18.67;;
67768;SDS011;54569;52.018;5.584;2022-08-19T11:03:08;19.08;;;16.52;;
67768;SDS011;54569;52.018;5.584;2022-08-19T11:05:34;21.05;;;16.90;;
67768;SDS011;54569;52.018;5.584;2022-08-19T11:07:59;16.20;;;14.63;;
67768;SDS011;54569;52.018;5.584;2022-08-19T11:10:25;17.23;;;15.52;;
67768;SDS011;54569;52.018;5.584;2022-08-19T11:12:50;19.15;;;17.15;;
67768;SDS011;54569;52.018;5.584;2022-08-19T11:15:20;20.77;;;18.58;;
67768;SDS011;54569;52.018;5.584;2022-08-19T11:17:46;19.50;;;17.52;;
67768;SDS011;54569;52.018;5.584;2022-08-19T11:20:12;21.02;;;18.88;;
67768;SDS011;54569;52.018;5.584;2022-08-19T11:22:39;21.00;;;18.77;;
67768;SDS011;54569;52.018;5.584;2022-08-19T11:25:06;22.60;;;19.20;;
67768;SDS011;54569;52.018;5.584;2022-08-19T11:27:33;22.50;;;20.13;;
67768;SDS011;54569;52.018;5.584;2022-08-19T11:29:58;22.38;;;20.15;;
67768;SDS011;54569;52.018;5.584;2022-08-19T11:32:25;23.15;;;20.45;;
67768;SDS011;54569;52.018;5.584;2022-08-19T11:34:51;22.98;;;20.77;;
67768;SDS011;54569;52.018;5.584;2022-08-19T11:37:17;23.85;;;21.50;;
67768;SDS011;54569;52.018;5.584;2022-08-19T11:39:43;20.92;;;18.92;;
67768;SDS011;54569;52.018;5.584;2022-08-19T11:42:08;21.65;;;19.50;;
67768;SDS011;54569;52.018;5.584;2022-08-19T11:44:53;22.92;;;20.65;;
67768;SDS011;54569;52.018;5.584;2022-08-19T11:47:19;21.50;;;19.25;;
67768;SDS011;54569;52.018;5.584;2022-08-19T11:49:45;23.30;;;21.02;;
67768;SDS011;54569;52.018;5.584;2022-08-19T11:52:12;21.77;;;19.67;;
67768;SDS011;54569;52.018;5.584;2022-08-19T11:54:37;22.48;;;20.27;;
67768;SDS011;54569;52.018;5.584;2022-08-19T11:57:03;22.95;;;20.55;;
67768;SDS011;54569;52.018;5.584;2022-08-19T11:59:29;23.13;;;20.75;;
67768;SDS011;54569;52.018;5.584;2022-08-19T12:01:55;24.42;;;21.92;;
67768;SDS011;54569;52.018;5.584;2022-08-19T12:04:22;26.20;;;23.60;;
67768;SDS011;54569;52.018;5.584;2022-08-19T12:06:48;23.88;;;21.48;;
67768;SDS011;54569;52.018;5.584;2022-08-19T12:09:15;22.55;;;20.63;;
67768;SDS011;54569;52.018;5.584;2022-08-19T12:11:42;22.92;;;20.52;;
67768;SDS011;54569;52.018;5.584;2022-08-19T12:14:18;26.45;;;23.80;;
67768;SDS011;54569;52.018;5.584;2022-08-19T12:16:45;23.90;;;21.67;;
67768;SDS011;54569;52.018;5.584;2022-08-19T12:19:11;24.17;;;21.70;;
67768;SDS011;54569;52.018;5.584;2022-08-19T12:21:37;26.10;;;23.60;;
67768;SDS011;54569;52.018;5.584;2022-08-19T12:24:05;25.02;;;22.60;;
67768;SDS011;54569;52.018;5.584;2022-08-19T12:26:31;24.77;;;22.08;;
67768;SDS011;54569;52.018;5.584;2022-08-19T12:28:57;26.50;;;23.75;;
67768;SDS011;54569;52.018;5.584;2022-08-19T12:31:25;26.25;;;23.60;;
67768;SDS011;54569;52.018;5.584;2022-08-19T12:34:14;25.58;;;22.92;;
67768;SDS011;54569;52.018;5.584;2022-08-19T12:36:40;25.42;;;23.13;;
67768;SDS011;54569;52.018;5.584;2022-08-19T12:39:06;26.17;;;23.38;;
67768;SDS011;54569;52.018;5.584;2022-08-19T12:41:33;27.15;;;24.45;;
67768;SDS011;54569;52.018;5.584;2022-08-19T12:43:59;27.90;;;25.20;;
67768;SDS011;54569;52.018;5.584;2022-08-19T12:46:24;28.00;;;25.15;;
67768;SDS011;54569;52.018;5.584;2022-08-19T12:48:50;25.05;;;22.35;;
67768;SDS011;54569;52.018;5.584;2022-08-19T12:51:17;21.88;;;19.77;;
67768;SDS011;54569;52.018;5.584;2022-08-19T12:53:44;20.35;;;18.45;;
67768;SDS011;54569;52.018;5.584;2022-08-19T12:56:11;20.70;;;18.55;;
67768;SDS011;54569;52.018;5.584;2022-08-19T12:58:39;19.38;;;17.50;;
67768;SDS011;54569;52.018;5.584;2022-08-19T13:01:07;17.73;;;16.00;;
67768;SDS011;54569;52.018;5.584;2022-08-19T13:03:41;21.17;;;19.23;;
67768;SDS011;54569;52.018;5.584;2022-08-19T13:06:08;20.15;;;18.08;;
67768;SDS011;54569;52.018;5.584;2022-08-19T13:08:34;18.50;;;16.80;;
67768;SDS011;54569;52.018;5.584;2022-08-19T13:11:12;19.00;;;17.10;;
67768;SDS011;54569;52.018;5.584;2022-08-19T13:13:43;19.75;;;17.77;;
67768;SDS011;54569;52.018;5.584;2022-08-19T13:16:11;20.35;;;18.15;;
67768;SDS011;54569;52.018;5.584;2022-08-19T13:18:37;21.27;;;19.25;;
67768;SDS011;54569;52.018;5.584;2022-08-19T13:21:05;22.40;;;20.10;;
67768;SDS011;54569;52.018;5.584;2022-08-19T13:23:37;20.50;;;18.58;;
67768;SDS011;54569;52.018;5.584;2022-08-19T13:26:03;23.33;;;21.02;;
67768;SDS011;54569;52.018;5.584;2022-08-19T13:28:31;22.90;;;20.73;;
67768;SDS011;54569;52.018;5.584;2022-08-19T13:31:16;22.67;;;20.38;;
67768;SDS011;54569;52.018;5.584;2022-08-19T13:34:01;22.90;;;20.60;;
67768;SDS011;54569;52.018;5.584;2022-08-19T13:36:27;25.30;;;20.65;;
67768;SDS011;54569;52.018;5.584;2022-08-19T13:38:53;24.35;;;21.83;;
67768;SDS011;54569;52.018;5.584;2022-08-19T13:41:19;24.38;;;21.83;;
67768;SDS011;54569;52.018;5.584;2022-08-19T13:43:44;25.58;;;22.95;;
67768;SDS011;54569;52.018;5.584;2022-08-19T13:46:11;26.00;;;23.15;;
67768;SDS011;54569;52.018;5.584;2022-08-19T13:48:39;26.00;;;23.30;;
67768;SDS011;54569;52.018;5.584;2022-08-19T13:51:06;24.70;;;21.52;;
67768;SDS011;54569;52.018;5.584;2022-08-19T13:53:35;25.25;;;22.38;;
67768;SDS011;54569;52.018;5.584;2022-08-19T13:56:06;26.00;;;23.35;;
67768;SDS011;54569;52.018;5.584;2022-08-19T13:58:33;26.42;;;22.38;;
67768;SDS011;54569;52.018;5.584;2022-08-19T14:00:59;23.92;;;21.45;;
67768;SDS011;54569;52.018;5.584;2022-08-19T14:03:25;25.80;;;22.23;;
67768;SDS011;54569;52.018;5.584;2022-08-19T14:05:52;22.70;;;20.50;;
67768;SDS011;54569;52.018;5.584;2022-08-19T14:08:18;26.63;;;21.65;;
67768;SDS011;54569;52.018;5.584;2022-08-19T14:10:44;26.98;;;22.98;;
67768;SDS011;54569;52.018;5.584;2022-08-19T14:13:12;29.80;;;26.77;;
67768;SDS011;54569;52.018;5.584;2022-08-19T14:15:40;16.98;;;15.18;;
67768;SDS011;54569;52.018;5.584;2022-08-19T14:18:06;17.20;;;15.48;;
67768;SDS011;54569;52.018;5.584;2022-08-19T14:20:33;25.67;;;23.23;;
67768;SDS011;54569;52.018;5.584;2022-08-19T14:23:00;11.80;;;10.68;;
67768;SDS011;54569;52.018;5.584;2022-08-19T14:25:26;17.25;;;15.40;;
67768;SDS011;54569;52.018;5.584;2022-08-19T14:27:54;15.93;;;10.40;;
67768;SDS011;54569;52.018;5.584;2022-08-19T14:30:21;17.70;;;9.07;;
67768;SDS011;54569;52.018;5.584;2022-08-19T14:32:51;7.80;;;6.60;;
67768;SDS011;54569;52.018;5.584;2022-08-19T14:35:18;7.28;;;6.55;;
67768;SDS011;54569;52.018;5.584;2022-08-19T14:37:44;10.65;;;7.45;;
67768;SDS011;54569;52.018;5.584;2022-08-19T14:40:10;8.23;;;7.43;;
67768;SDS011;54569;52.018;5.584;2022-08-19T14:42:37;10.13;;;8.00;;
67768;SDS011;54569;52.018;5.584;2022-08-19T14:45:04;7.95;;;7.25;;
67768;SDS011;54569;52.018;5.584;2022-08-19T14:47:30;6.88;;;6.30;;